Flight Track Log - Related Links

Times and Time Zones

All times are in EST time to prevent confusion due to time zone crossing. See the N8KB flight status page for this flight to view local times or setup timezone preferences in your user account.

Time Position Orientation Groundspeed Altitude Reporting Facility
EST Latitude Longitude Course Direction KTS MPH feet Rate Location/Type
Thu 01:52:20 PM 32.8167 -117.1833 292° West 161 185 1,200  Level Southern California TRACON
Thu 01:53:20 PM 32.8333 -117.2333 292° West 180 207 3,200 1,895 Climbing Southern California TRACON
Thu 01:54:14 PM 32.8500 -117.2667 301° West 209 241 4,800 368 Climbing Southern California TRACON
Thu 01:55:14 PM 32.8500 -117.1833 90° East 245 282 3,900 290 Descending Southern California TRACON
Thu 01:56:18 PM 32.8275 -117.1208 113° Southeast 224 258 5,400 1,488 Climbing Los Angeles Center
Thu 01:57:19 PM 32.8339 -117.0533 84° East 208 239 7,000 1,603 Climbing Los Angeles Center
Thu 01:58:14 PM 32.8167 -116.9833 106° East 207 238 8,500 1,613 Climbing Southern California TRACON
Thu 02:00:25 PM 32.7736 -116.8472 111° Southeast 209 241 12,000 1,492 Climbing Los Angeles Center
Thu 02:01:27 PM 32.7597 -116.7822 104° East 206 237 13,300 882 Climbing Los Angeles Center
Thu 02:02:41 PM 32.7631 -116.7089 87° East 218 251 14,000 307 Climbing Los Angeles Center
Thu 02:03:44 PM 32.7619 -116.6047 91° East 264 304 14,000 -48 Level Los Angeles Center
Thu 02:04:47 PM 32.7658 -116.4992 87° East 271 312 13,900 484 Descending Los Angeles Center
Thu 02:05:48 PM 32.7622 -116.4142 93° East 266 306 15,000 1,073 Climbing Los Angeles Center
Thu 02:06:50 PM 32.7614 -116.3372 91° East 244 281 16,100 1,344 Climbing Los Angeles Center
Thu 02:07:53 PM 32.7622 -116.2647 89° East 226 260 17,800 1,632 Climbing Los Angeles Center
Thu 02:08:55 PM 32.7608 -116.1889 91° East 196 226 19,500 1,452 Climbing Los Angeles Center
Thu 02:09:57 PM 32.7561 -116.1225 95° East 201 231 20,800 726 Climbing Los Angeles Center
Thu 02:10:59 PM 32.7575 -116.0475 89° East 225 259 21,000 96 Climbing Los Angeles Center
Thu 02:12:02 PM 32.7556 -115.9564 91° East 269 310 21,000  Level Los Angeles Center
Thu 02:13:03 PM 32.7558 -115.8614 90° East 285 328 21,000  Level Los Angeles Center
Thu 02:14:06 PM 32.7531 -115.7453 92° East 293 337 21,000  Level Los Angeles Center
Thu 02:15:08 PM 32.7514 -115.6486 91° East 293 337 21,000  Level Los Angeles Center
Thu 02:15:26 PM 32.7508 -115.6178 91° East 296 341 21,000  Level Los Angeles Center
Thu 02:16:10 PM 32.7481 -115.5503 93° East 297 342 21,000  Level Los Angeles Center
Thu 02:16:20 PM 32.7494 -115.5297 85° East 296 341 21,000  Level Los Angeles Center
Thu 02:17:20 PM 32.7506 -115.4308 89° East 294 338 21,000  Level Los Angeles Center
Thu 02:17:24 PM 32.7469 -115.4533 259° West 296 341 21,000  Level Los Angeles Center
Thu 02:18:21 PM 32.7539 -115.3339 86° East 293 337 21,000  Level Los Angeles Center
Thu 02:18:27 PM 32.7525 -115.3375 245° Southwest 293 337 21,000  Level Los Angeles Center
Thu 02:19:22 PM 32.7542 -115.2325 89° East 295 339 21,000  Level Los Angeles Center
Thu 02:19:29 PM 32.7575 -115.2208 71° East 296 341 21,000  Level Los Angeles Center
Thu 02:20:31 PM 32.7600 -115.1242 88° East 293 337 21,000  Level Los Angeles Center
Thu 02:21:33 PM 32.7617 -115.0272 89° East 293 337 21,000  Level Los Angeles Center
Thu 02:22:23 PM 32.7608 -114.9372 91° East 294 338 21,000  Level Los Angeles Center
Thu 02:22:35 PM 32.7633 -114.9297 68° East 294 338 21,000  Level Los Angeles Center
Thu 02:23:24 PM 32.7622 -114.8433 91° East 294 338 21,000  Level Los Angeles Center
Thu 02:23:38 PM 32.7661 -114.8331 66° East 294 338 21,000  Level Los Angeles Center
Thu 02:24:25 PM 32.7636 -114.7492 92° East 293 337 21,000  Level Los Angeles Center
Thu 02:24:40 PM 32.7669 -114.7364 73° East 292 336 21,000  Level Los Angeles Center
Thu 02:25:25 PM 32.7664 -114.6522 90° East 293 337 21,000  Level Los Angeles Center
Thu 02:25:42 PM 32.7703 -114.6214 81° East 290 334 21,000  Level Los Angeles Center
Thu 02:26:26 PM 32.7678 -114.5478 92° East 295 339 21,000  Level Los Angeles Center
Thu 02:26:44 PM 32.7697 -114.5250 84° East 292 336 21,000 -800 Level Los Angeles Center
Thu 02:27:26 PM 32.7686 -114.4514 91° East 302 348 20,200 -1,065 Descending Los Angeles Center
Thu 02:27:46 PM 32.7711 -114.4250 84° East 302 348 19,900 -1,082 Descending Los Angeles Center
Thu 02:28:27 PM 32.7697 -114.3472 91° East 323 372 19,100 -1,065 Descending Los Angeles Center
Thu 02:28:48 PM 32.7742 -114.3181 80° East 322 371 18,800 -929 Descending Los Angeles Center
Thu 02:29:51 PM 32.7806 -114.2122 86° East 322 371 17,800 -1,056 Descending Los Angeles Center
Thu 02:30:53 PM 32.7781 -114.0869 91° East 317 365 16,600 -1,016 Descending Los Angeles Center
Thu 02:31:55 PM 32.7781 -113.9836 90° East 314 361 15,700 -774 Descending Los Angeles Center
Thu 02:32:57 PM 32.7886 -113.8794 83° East 305 351 15,000 -339 Descending Los Angeles Center
Thu 02:33:59 PM 32.8039 -113.7869 79° East 288 331 15,000  Level Los Angeles Center
Thu 02:35:02 PM 32.8167 -113.6978 80° East 276 318 15,000  Level Los Angeles Center
Thu 02:36:04 PM 32.8561 -113.6261 57° Northeast 261 300 15,000  Level Los Angeles Center
Thu 02:36:44 PM 32.8858 -113.5867 48° Northeast 260 299 15,000  Level Albuquerque Center
Thu 02:37:46 PM 32.9447 -113.5128 46° Northeast 255 293 15,000  Level Albuquerque Center
Thu 02:38:48 PM 33.0025 -113.4647 35° Northeast 250 288 15,000  Level Albuquerque Center
Thu 02:39:50 PM 33.0592 -113.4144 37° Northeast 252 290 15,000  Level Albuquerque Center
Thu 02:40:52 PM 33.1161 -113.3639 37° Northeast 252 290 15,000  Level Albuquerque Center
Thu 02:41:54 PM 33.1731 -113.3142 36° Northeast 252 290 15,000  Level Albuquerque Center
Thu 02:42:56 PM 33.2286 -113.2642 37° Northeast 251 289 15,000  Level Albuquerque Center
Thu 02:43:58 PM 33.2867 -113.2142 36° Northeast 253 291 15,000  Level Albuquerque Center
Thu 02:44:34 PM 33.3322 -113.1689 40° Northeast 260 299 15,000  Level Albuquerque Center
Thu 02:45:00 PM 33.3531 -113.1508 36° Northeast 254 292 15,000  Level Albuquerque Center
Thu 02:45:11 PM 33.3636 -113.1408 38° Northeast 254 292 15,000 -677 Level Albuquerque Center
Thu 02:46:02 PM 33.4119 -113.1006 35° Northeast 256 295 14,300 -1,000 Descending Albuquerque Center
Thu 02:46:17 PM 33.4322 -113.0808 39° Northeast 266 306 13,900 -1,161 Descending Albuquerque Center
Thu 02:47:04 PM 33.4744 -113.0450 35° Northeast 267 307 13,100 -1,082 Descending Albuquerque Center
Thu 02:47:18 PM 33.4925 -113.0228 46° Northeast 285 328 12,800 -968 Descending Albuquerque Center
Thu 02:48:06 PM 33.5356 -112.9867 35° Northeast 274 315 12,100 -985 Descending Albuquerque Center
Thu 02:48:25 PM 33.5614 -112.9653 35° Northeast 283 326 11,700 -984 Descending Albuquerque Center
Thu 02:49:07 PM 33.5992 -112.9322 36° Northeast 278 320 11,100 -636 Descending Albuquerque Center
Thu 02:49:31 PM 33.6128 -112.8811 72° East 283 326 11,000 -97 Descending Albuquerque Center
Thu 02:50:09 PM 33.6189 -112.8397 80° East 305 351 11,000  Level Albuquerque Center
Thu 02:50:32 PM 33.6250 -112.7914 81° East 265 305 11,000 -581 Level Albuquerque Center
Thu 02:51:11 PM 33.6383 -112.7383 73° East 281 323 10,400 -873 Descending Albuquerque Center
Thu 02:51:27 PM 33.6461 -112.7172 66° East 273 314 10,200 -886 Descending Albuquerque Center
Thu 02:52:39 PM 33.6903 -112.6169 62° Northeast 274 315 9,100 -889 Descending Albuquerque Center
Thu 02:53:15 PM 33.7083 -112.5744 63° Northeast 275 316 8,600 -857 Descending Albuquerque Center
Thu 02:54:17 PM 33.7436 -112.4953 62° Northeast 269 310 7,700 -871 Descending Albuquerque Center
Thu 02:55:19 PM 33.7789 -112.4186 61° Northeast 263 303 6,800 -816 Descending Albuquerque Center
Thu 02:56:22 PM 33.7828 -112.3333 87° East 260 299 6,000 -435 Descending Albuquerque Center
Thu 02:57:23 PM 33.7781 -112.2381 93° East 241 277 5,900  Descending Albuquerque Center
Thu 02:58:25 PM 33.7775 -112.1619 90° East 230 265 6,000 48 Climbing Albuquerque Center
Thu 02:59:27 PM 33.7742 -112.0872 93° East 226 260 6,000 -290 Level Albuquerque Center
Thu 03:00:29 PM 33.7594 -112.0178 104° East 219 252 5,400 -871 Descending Albuquerque Center
Thu 03:01:31 PM 33.7261 -111.9636 126° Southeast 202 232 4,200 -1,113 Descending Albuquerque Center
Thu 03:02:33 PM 33.6883 -111.9122 131° Southeast 173 199 3,100 -823 Descending Albuquerque Center
Thu 03:03:35 PM 33.6631 -111.8794 133° Southeast 153 176 2,500 -629 Descending Albuquerque Center
Thu 03:04:37 PM 33.6375 -111.8944 206° Southwest 129 148 1,800 -677 Descending Albuquerque Center

Login

Don't have an account? Register now (free) for customized features, flight alerts, and more!